Time;durP1;ratioP1;P1;durP2;ratioP2;P2;SDS_P1;SDS_P2;PMS_P1;PMS_P2;Temp;Humidity;BMP_temperature;BMP_pressure;BME280_temperature;BME280_humidity;BME280_pressure;Samples;Min_cycle;Max_cycle;Signal;HPM_P1;HPM_P2
2021/04/16 00:00:43;;;;;;;5.00;2.08;;;;;;;3.07;94.96;103114.22;6160643;23;19997;-81
2021/04/16 00:03:10;;;;;;;4.97;2.47;;;;;;;3.01;94.13;103107.97;6133000;23;20009;-81
2021/04/16 00:05:37;;;;;;;5.88;1.90;;;;;;;2.99;95.42;103105.31;6159989;23;20010;-82
2021/04/16 00:08:05;;;;;;;6.47;2.45;;;;;;;3.07;94.43;103109.00;6161011;23;20499;-81
2021/04/16 00:10:42;;;;;;;4.90;2.30;;;;;;;2.98;95.44;103108.78;6162121;23;20055;-82
2021/04/16 00:13:09;;;;;;;3.78;2.13;;;;;;;2.97;95.48;103103.53;6135418;23;20069;-82
2021/04/16 00:15:38;;;;;;;2.97;1.98;;;;;;;2.99;98.77;103101.81;6133485;23;20005;-82
2021/04/16 00:18:05;;;;;;;4.43;2.47;;;;;;;3.03;97.32;103093.22;6133732;23;20052;-81
2021/04/16 00:20:31;;;;;;;5.85;1.98;;;;;;;2.91;94.97;103085.97;6132773;23;20001;-81
2021/04/16 00:22:57;;;;;;;3.63;1.90;;;;;;;2.96;94.36;103093.91;6132398;23;20028;-81
2021/04/16 00:25:24;;;;;;;5.70;2.08;;;;;;;2.96;93.85;103088.69;6159360;23;20450;-81
2021/04/16 00:27:50;;;;;;;3.45;2.00;;;;;;;2.89;94.21;103092.00;6132721;23;20391;-82
2021/04/16 00:30:20;;;;;;;5.15;1.92;;;;;;;2.83;94.86;103087.53;6132047;23;20005;-82
2021/04/16 00:32:45;;;;;;;7.65;2.00;;;;;;;2.80;97.31;103077.00;6131872;23;20080;-82
2021/04/16 00:35:11;;;;;;;4.13;2.17;;;;;;;2.76;95.78;103072.56;6158256;23;20009;-82
2021/04/16 00:37:36;;;;;;;2.28;1.70;;;;;;;2.69;96.87;103074.16;6131917;23;20002;-82
2021/04/16 00:40:05;;;;;;;4.10;1.83;;;;;;;2.58;96.43;103079.13;6137068;23;20036;-83
2021/04/16 00:42:31;;;;;;;3.95;1.90;;;;;;;2.56;95.92;103067.78;6162776;23;20056;-83
2021/04/16 00:44:56;;;;;;;3.67;2.05;;;;;;;2.70;99.02;103072.41;6135383;23;20025;-81
2021/04/16 00:47:22;;;;;;;2.92;1.75;;;;;;;2.68;97.51;103077.59;6162540;23;20040;-82
2021/04/16 00:49:51;;;;;;;3.95;2.20;;;;;;;2.65;98.08;103069.69;6132123;23;20041;-81
2021/04/16 00:52:26;;;;;;;4.80;1.70;;;;;;;2.69;97.42;103068.94;6157023;23;20033;-82
2021/04/16 00:54:51;;;;;;;2.95;1.60;;;;;;;2.58;97.74;103066.06;6132132;23;20005;-82
2021/04/16 00:57:17;;;;;;;3.42;1.95;;;;;;;2.57;99.92;103061.69;6157578;23;20438;-80
2021/04/16 00:59:51;;;;;;;4.38;2.38;;;;;;;2.48;98.98;103069.28;6160735;23;20027;-80
2021/04/16 01:02:16;;;;;;;5.43;2.45;;;;;;;2.57;99.40;103068.66;6157982;23;20009;-81
2021/04/16 01:04:41;;;;;;;3.88;2.45;;;;;;;2.47;99.86;103071.88;6132316;23;20104;-81
2021/04/16 01:07:09;;;;;;;6.13;2.38;;;;;;;2.47;100.00;103066.66;6156776;23;20494;-81
2021/04/16 01:09:35;;;;;;;3.30;1.95;;;;;;;2.44;100.00;103072.66;6156454;23;20002;-80
2021/04/16 01:12:04;;;;;;;3.50;2.03;;;;;;;2.45;100.00;103069.22;6158860;23;20064;-81
2021/04/16 01:14:31;;;;;;;4.60;1.92;;;;;;;2.41;100.00;103069.09;6160220;23;20002;-82
2021/04/16 01:16:57;;;;;;;2.38;1.60;;;;;;;2.33;100.00;103066.31;6161324;23;20750;-82
2021/04/16 01:19:39;;;;;;;6.13;2.42;;;;;;;2.27;100.00;103069.66;6134200;23;20028;-81
2021/04/16 01:22:11;;;;;;;4.05;2.00;;;;;;;2.28;100.00;103063.56;6132724;23;20002;-81
2021/04/16 01:24:36;;;;;;;4.15;1.90;;;;;;;2.29;100.00;103067.06;6158555;23;20005;-82
2021/04/16 01:27:10;;;;;;;2.45;1.67;;;;;;;2.29;100.00;103064.47;6132563;23;20132;-82
2021/04/16 01:29:39;;;;;;;4.85;2.00;;;;;;;2.25;100.00;103070.44;6159947;23;20013;-82
2021/04/16 01:32:05;;;;;;;4.15;2.45;;;;;;;2.25;100.00;103065.22;6160021;23;20634;-83
2021/04/16 01:34:30;;;;;;;2.65;1.92;;;;;;;2.18;100.00;103056.38;6160295;23;20002;-82
2021/04/16 01:36:57;;;;;;;4.03;2.33;;;;;;;2.24;100.00;103063.47;6134437;23;20758;-82
2021/04/16 01:39:25;;;;;;;4.03;1.70;;;;;;;2.17;100.00;103061.56;6134786;23;20012;-81
2021/04/16 01:41:50;;;;;;;5.70;1.88;;;;;;;2.15;100.00;103061.50;6136136;23;20040;-83
2021/04/16 01:44:19;;;;;;;3.13;2.00;;;;;;;2.12;100.00;103064.03;6161794;23;20009;-82
2021/04/16 01:46:54;;;;;;;3.60;1.65;;;;;;;2.10;100.00;103065.72;6135643;23;20072;-82
2021/04/16 01:49:20;;;;;;;6.03;1.75;;;;;;;2.20;100.00;103066.84;6134950;23;20005;-82
2021/04/16 01:51:46;;;;;;;4.47;1.80;;;;;;;2.18;100.00;103058.09;6158412;23;20033;-82
2021/04/16 01:54:15;;;;;;;2.60;1.70;;;;;;;2.03;100.00;103054.25;6135324;23;20032;-82
2021/04/16 01:56:44;;;;;;;3.83;1.83;;;;;;;2.04;100.00;103063.81;6160915;23;20040;-82
2021/04/16 01:59:15;;;;;;;2.38;1.65;;;;;;;2.10;100.00;103057.00;6135051;23;20343;-83
2021/04/16 02:01:43;;;;;;;4.00;2.08;;;;;;;2.00;100.00;103056.75;6132571;23;20423;-83
2021/04/16 02:04:09;;;;;;;3.72;2.22;;;;;;;1.93;100.00;103059.19;6159032;23;20109;-82
2021/04/16 02:06:35;;;;;;;2.95;1.95;;;;;;;1.89;100.00;103057.31;6132599;23;20001;-82
2021/04/16 02:09:04;;;;;;;3.70;1.80;;;;;;;1.95;100.00;103057.47;6160486;23;20017;-83
2021/04/16 02:11:30;;;;;;;3.88;2.13;;;;;;;1.97;100.00;103059.31;6134456;23;20002;-82
2021/04/16 02:13:55;;;;;;;2.25;1.77;;;;;;;1.86;100.00;103042.50;6134704;23;20058;-82
2021/04/16 02:16:20;;;;;;;2.45;1.90;;;;;;;1.94;100.00;103056.59;6134941;23;20006;-82
2021/04/16 02:18:46;;;;;;;5.80;2.38;;;;;;;1.96;100.00;103049.72;6135410;23;20044;-82
2021/04/16 02:21:11;;;;;;;4.43;2.00;;;;;;;2.09;100.00;103053.50;6134463;23;20025;-81
2021/04/16 02:23:36;;;;;;;3.78;1.67;;;;;;;1.95;100.00;103049.66;6160378;23;20009;-82
2021/04/16 02:26:01;;;;;;;3.97;1.83;;;;;;;2.00;100.00;103048.94;6134239;23;20092;-82
2021/04/16 02:28:27;;;;;;;3.03;2.00;;;;;;;1.92;100.00;103047.00;6160075;23;20029;-82
2021/04/16 02:30:52;;;;;;;4.50;2.15;;;;;;;1.90;100.00;103049.53;6162531;23;20001;-81
2021/04/16 02:33:17;;;;;;;3.67;2.30;;;;;;;1.89;100.00;103045.16;6165580;23;20431;-81
2021/04/16 02:35:43;;;;;;;3.03;1.73;;;;;;;1.77;100.00;103050.94;6135945;23;20009;-82
2021/04/16 02:38:08;;;;;;;4.10;2.00;;;;;;;1.84;100.00;103045.91;6157727;23;20052;-82
2021/04/16 02:40:33;;;;;;;4.05;2.42;;;;;;;1.69;100.00;103039.41;6159066;23;20304;-80
2021/04/16 02:42:59;;;;;;;2.38;1.75;;;;;;;1.68;100.00;103039.38;6131602;23;20009;-80
2021/04/16 02:45:27;;;;;;;3.47;2.45;;;;;;;1.78;100.00;103041.41;6157907;23;20016;-80
2021/04/16 02:47:53;;;;;;;3.22;2.20;;;;;;;1.94;100.00;103048.78;6160952;23;20014;-82
2021/04/16 02:50:23;;;;;;;3.13;2.25;;;;;;;1.79;100.00;103045.75;6162430;23;20001;-82
2021/04/16 02:52:50;;;;;;;5.22;2.38;;;;;;;1.78;100.00;103044.88;6161897;23;20001;-81
2021/04/16 02:55:16;;;;;;;6.38;2.47;;;;;;;1.73;100.00;103043.00;6135215;23;20006;-81
2021/04/16 02:57:42;;;;;;;4.65;2.42;;;;;;;1.69;100.00;103048.97;6140374;23;20016;-83
2021/04/16 03:00:14;;;;;;;2.72;2.00;;;;;;;1.62;100.00;103044.44;6135520;23;20009;-80
2021/04/16 03:02:39;;;;;;;4.10;2.25;;;;;;;1.64;100.00;103034.94;6160637;23;19998;-80
2021/04/16 03:05:06;;;;;;;4.45;2.33;;;;;;;1.57;100.00;103044.31;6160770;23;20074;-83
2021/04/16 03:07:31;;;;;;;5.15;2.60;;;;;;;1.69;100.00;103036.81;6136062;23;20443;-81
2021/04/16 03:09:57;;;;;;;3.55;2.30;;;;;;;1.58;100.00;103035.63;6136163;23;20009;-82
2021/04/16 03:12:22;;;;;;;3.97;2.20;;;;;;;1.71;100.00;103042.97;6170593;23;20416;-82
2021/04/16 03:14:47;;;;;;;4.65;2.55;;;;;;;1.60;100.00;103044.38;6138416;23;20036;-82
2021/04/16 03:17:13;;;;;;;6.25;2.67;;;;;;;1.61;100.00;103040.97;6135477;23;20021;-82
2021/04/16 03:19:39;;;;;;;5.22;2.38;;;;;;;1.61;100.00;103040.97;6138029;23;20093;-82
2021/04/16 03:22:04;;;;;;;4.22;2.80;;;;;;;1.56;100.00;103042.56;6165909;23;19994;-82
2021/04/16 03:24:30;;;;;;;9.05;2.42;;;;;;;1.60;100.00;103040.88;6167007;23;20001;-82
2021/04/16 03:26:55;;;;;;;3.80;2.45;;;;;;;1.58;100.00;103045.19;6121495;23;20014;-80
2021/04/16 03:29:20;;;;;;;5.78;2.30;;;;;;;1.56;100.00;103039.94;6141075;23;20694;-82
2021/04/16 03:31:46;;;;;;;6.38;2.83;;;;;;;1.57;100.00;103041.72;6161811;23;20002;-81
2021/04/16 03:34:11;;;;;;;3.78;2.55;;;;;;;1.56;100.00;103039.94;6160074;23;20092;-81
2021/04/16 03:36:37;;;;;;;3.67;2.33;;;;;;;1.60;100.00;103028.72;6162188;23;20005;-81
2021/04/16 03:39:03;;;;;;;9.35;2.80;;;;;;;1.57;100.00;103038.22;6164773;23;20001;-80
2021/04/16 03:41:28;;;;;;;11.48;2.78;;;;;;;1.59;100.00;103033.91;6161834;23;20004;-81
2021/04/16 03:43:53;;;;;;;6.20;3.10;;;;;;;1.53;100.00;103038.13;6160944;23;20483;-82
2021/04/16 03:46:19;;;;;;;7.50;3.10;;;;;;;1.42;100.00;103031.72;6166051;23;20379;-82
2021/04/16 03:48:44;;;;;;;4.60;2.80;;;;;;;1.51;100.00;103041.53;6163383;23;20005;-81
2021/04/16 03:51:10;;;;;;;4.55;2.80;;;;;;;1.45;100.00;103034.41;6134270;23;20008;-82
2021/04/16 03:53:40;;;;;;;3.60;2.30;;;;;;;1.57;100.00;103043.44;6158418;23;20005;-81
2021/04/16 03:56:08;;;;;;;7.75;2.92;;;;;;;1.56;100.00;103045.16;6160886;23;20001;-81
2021/04/16 03:58:35;;;;;;;5.22;2.75;;;;;;;1.62;100.00;103037.50;6163326;23;20060;-82
2021/04/16 04:01:01;;;;;;;7.05;3.55;;;;;;;1.61;100.00;103035.75;6164275;23;20686;-81
2021/04/16 04:03:26;;;;;;;8.10;3.63;;;;;;;1.54;100.00;103039.00;6161038;23;20002;-82
2021/04/16 04:05:52;;;;;;;6.32;2.90;;;;;;;1.55;100.00;103038.16;6163206;23;20013;-81
2021/04/16 04:08:17;;;;;;;5.35;3.75;;;;;;;1.51;100.00;103037.22;6162093;23;20028;-80
2021/04/16 04:10:42;;;;;;;5.20;2.97;;;;;;;1.58;100.00;103037.38;6159078;23;20010;-82
2021/04/16 04:13:11;;;;;;;9.45;3.60;;;;;;;1.50;100.00;103035.41;6162358;23;20005;-82
2021/04/16 04:15:36;;;;;;;9.15;3.53;;;;;;;1.44;100.00;103034.38;6164331;23;20005;-81
2021/04/16 04:18:05;;;;;;;6.82;3.53;;;;;;;1.66;100.00;103044.56;6164979;23;20005;-81
2021/04/16 04:20:33;;;;;;;7.72;3.30;;;;;;;1.59;100.00;103039.13;6165082;23;20002;-81
2021/04/16 04:22:59;;;;;;;7.65;3.60;;;;;;;1.65;100.00;103048.00;6163789;23;20005;-81
2021/04/16 04:25:27;;;;;;;7.53;3.47;;;;;;;1.58;100.00;103045.19;6164558;23;20332;-83
2021/04/16 04:27:53;;;;;;;7.35;3.70;;;;;;;1.63;100.00;103049.69;6130547;23;20065;-83
2021/04/16 04:30:23;;;;;;;9.85;4.00;;;;;;;1.66;100.00;103049.78;6086657;23;20021;-82
2021/04/16 04:32:48;;;;;;;6.30;3.38;;;;;;;1.69;100.00;103046.38;6110840;23;20002;-82
2021/04/16 04:35:14;;;;;;;9.23;4.50;;;;;;;1.78;100.00;103046.63;6109817;23;19997;-81
2021/04/16 04:37:39;;;;;;;8.73;4.68;;;;;;;1.74;100.00;103049.97;6109801;23;20417;-82
2021/04/16 04:40:06;;;;;;;7.68;4.28;;;;;;;1.67;100.00;103050.66;6111190;23;20010;-82
2021/04/16 04:42:32;;;;;;;11.50;5.22;;;;;;;1.64;100.00;103045.34;6109426;23;20062;-82
2021/04/16 04:44:57;;;;;;;7.45;4.18;;;;;;;1.73;100.00;103043.88;6135569;23;20006;-80
2021/04/16 04:47:23;;;;;;;10.60;5.18;;;;;;;1.76;100.00;103049.19;6135871;23;20005;-79
2021/04/16 04:49:48;;;;;;;9.30;4.80;;;;;;;1.78;100.00;103049.22;6134881;23;20053;-80
2021/04/16 04:52:25;;;;;;;11.15;5.28;;;;;;;1.76;100.00;103049.19;6134407;23;20021;-80
2021/04/16 04:54:53;;;;;;;10.13;5.53;;;;;;;1.71;100.00;103042.97;6108963;23;20010;-80
2021/04/16 04:57:21;;;;;;;11.93;5.50;;;;;;;1.76;100.00;103043.97;6134731;23;19998;-80
2021/04/16 04:59:47;;;;;;;7.55;5.32;;;;;;;1.74;100.00;103042.16;6138291;23;20025;-81
2021/04/16 05:02:16;;;;;;;13.13;6.38;;;;;;;1.70;100.00;103046.38;6116029;23;20002;-81
2021/04/16 05:04:46;;;;;;;10.75;5.78;;;;;;;1.68;100.00;103044.59;6143778;23;20005;-81
2021/04/16 05:07:12;;;;;;;9.07;5.32;;;;;;;1.83;100.00;103037.19;6117217;23;20101;-80
2021/04/16 05:09:38;;;;;;;9.13;5.47;;;;;;;1.80;100.00;103043.19;6139930;23;20006;-80
2021/04/16 05:12:03;;;;;;;10.77;5.78;;;;;;;1.69;100.00;103036.81;6136751;23;20002;-80
2021/04/16 05:14:29;;;;;;;9.90;5.60;;;;;;;1.71;100.00;103039.47;6110328;23;20404;-81
2021/04/16 05:16:54;;;;;;;8.23;5.40;;;;;;;1.73;100.00;103038.66;6135279;23;20037;-83
2021/04/16 05:19:20;;;;;;;10.55;6.32;;;;;;;1.81;100.00;103049.31;6134705;23;20077;-80
2021/04/16 05:21:46;;;;;;;10.88;5.95;;;;;;;1.81;100.00;103034.56;6134081;23;20809;-80
2021/04/16 05:24:11;;;;;;;9.57;6.40;;;;;;;1.83;100.00;103037.19;6107945;23;20033;-79
2021/04/16 05:26:38;;;;;;;15.15;6.22;;;;;;;1.80;100.00;103048.41;6110451;23;20017;-80
2021/04/16 05:29:04;;;;;;;9.32;6.28;;;;;;;1.89;100.00;103053.00;6109827;23;20046;-81
2021/04/16 05:31:30;;;;;;;11.43;5.78;;;;;;;1.89;100.00;103058.22;6134518;23;20483;-81
2021/04/16 05:33:56;;;;;;;10.60;6.07;;;;;;;1.89;100.00;103055.59;6108774;23;20030;-80
2021/04/16 05:36:23;;;;;;;10.93;6.63;;;;;;;2.06;100.00;103056.94;6110312;23;20032;-80
2021/04/16 05:38:48;;;;;;;11.05;5.88;;;;;;;2.10;100.00;103047.44;6136696;23;20002;-80
2021/04/16 05:41:14;;;;;;;10.50;6.55;;;;;;;2.19;100.00;103055.50;6115459;23;20006;-80
2021/04/16 05:43:39;;;;;;;9.30;5.70;;;;;;;2.38;100.00;103051.66;6108700;23;20002;-80
2021/04/16 05:46:04;;;;;;;9.15;5.80;;;;;;;2.38;100.00;103051.66;6132963;23;20001;-82
2021/04/16 05:48:30;;;;;;;15.05;6.68;;;;;;;2.43;100.00;103062.19;6131980;23;20012;-81
2021/04/16 05:50:55;;;;;;;12.27;5.88;;;;;;;2.51;100.00;103055.41;6131345;23;20506;-80
2021/04/16 05:53:21;;;;;;;9.70;5.40;;;;;;;2.65;100.00;103054.03;6106009;23;20152;-80
2021/04/16 05:55:46;;;;;;;15.52;5.28;;;;;;;2.75;100.00;103050.78;6106229;23;20005;-82
2021/04/16 05:58:11;;;;;;;9.65;5.07;;;;;;;2.85;100.00;103051.88;6105475;23;20049;-79
2021/04/16 06:00:37;;;;;;;11.68;4.65;;;;;;;2.95;100.00;103053.84;6100969;23;20009;-79
2021/04/16 06:03:02;;;;;;;12.05;5.20;;;;;;;2.98;100.00;103050.44;6101260;23;20532;-80
2021/04/16 06:05:28;;;;;;;15.05;5.45;;;;;;;3.06;100.00;103061.91;6127996;23;20351;-79
2021/04/16 06:07:55;;;;;;;12.68;4.10;;;;;;;3.17;100.00;103064.78;6100866;23;20041;-80
2021/04/16 06:10:21;;;;;;;11.60;5.55;;;;;;;3.15;100.00;103059.50;6100606;23;20088;-80
2021/04/16 06:12:47;;;;;;;8.50;4.95;;;;;;;3.32;100.00;103057.28;6093949;23;20539;-81
2021/04/16 06:15:16;;;;;;;12.43;6.25;;;;;;;3.34;100.00;103051.22;6124598;23;20002;-80
2021/04/16 06:17:43;;;;;;;10.70;5.50;;;;;;;3.41;100.00;103054.81;6109229;23;20054;-79
2021/04/16 06:20:21;;;;;;;11.25;5.30;;;;;;;3.53;100.00;103062.94;6127672;23;20644;-82
2021/04/16 06:22:52;;;;;;;13.63;5.40;;;;;;;3.69;100.00;103063.22;6100105;23;20010;-81
2021/04/16 06:25:21;;;;;;;6.90;4.40;;;;;;;3.76;100.00;103060.75;6126507;23;20016;-81
2021/04/16 06:27:47;;;;;;;10.73;6.15;;;;;;;3.79;100.00;103052.97;6131990;23;20030;-80
2021/04/16 06:30:13;;;;;;;6.97;4.07;;;;;;;3.94;100.00;103060.22;6130160;23;20022;-81
2021/04/16 06:32:39;;;;;;;9.25;4.90;;;;;;;4.00;100.00;103049.84;6128953;23;20012;-81
2021/04/16 06:35:05;;;;;;;12.00;4.07;;;;;;;4.11;100.00;103057.91;6155414;23;20005;-81
2021/04/16 06:37:33;;;;;;;7.07;4.18;;;;;;;4.20;100.00;103063.28;6129546;23;20041;-82
2021/04/16 06:39:59;;;;;;;8.77;4.47;;;;;;;4.29;100.00;103054.72;6131045;23;20001;-83
2021/04/16 06:42:31;;;;;;;7.97;4.72;;;;;;;4.37;100.00;103061.88;6131498;23;20374;-82
2021/04/16 06:45:00;;;;;;;7.25;4.78;;;;;;;4.43;100.00;103060.22;6132508;23;20159;-83
2021/04/16 06:47:31;;;;;;;8.80;5.25;;;;;;;4.50;100.00;103052.44;6161272;23;20024;-82
2021/04/16 06:49:58;;;;;;;14.10;4.88;;;;;;;4.54;100.00;103058.63;6141801;23;20073;-81
2021/04/16 06:52:59;;;;;;;9.25;4.88;;;;;;;4.66;100.00;103053.56;6159462;23;20001;-81
2021/04/16 06:55:32;;;;;;;9.32;4.22;;;;;;;4.81;100.00;103048.56;6072684;23;20013;-85
2021/04/16 06:58:36;;;;;;;6.28;4.10;;;;;;;4.88;100.00;103058.28;6134123;23;20037;-84
2021/04/16 07:01:08;;;;;;;11.65;4.57;;;;;;;4.97;100.00;103049.69;6130229;23;20002;-83
2021/04/16 07:03:42;;;;;;;13.15;5.47;;;;;;;5.01;100.00;103053.19;6157451;23;20304;-84
2021/04/16 07:06:27;;;;;;;11.55;4.90;;;;;;;5.14;100.00;103053.41;6131793;23;20096;-84
2021/04/16 07:08:58;;;;;;;12.80;5.40;;;;;;;5.25;100.00;103048.28;6132235;23;20107;-84
2021/04/16 07:11:25;;;;;;;15.73;5.20;;;;;;;5.37;100.00;103045.84;6136111;23;20001;-84
2021/04/16 07:13:51;;;;;;;9.93;4.85;;;;;;;5.41;100.00;103044.13;6165277;23;20005;-84
2021/04/16 07:16:19;;;;;;;17.70;6.57;;;;;;;5.54;100.00;103045.16;6137246;23;20575;-85
2021/04/16 07:18:48;;;;;;;12.70;4.85;;;;;;;5.56;100.00;103044.28;6133546;23;20001;-83
2021/04/16 07:21:18;;;;;;;10.30;5.00;;;;;;;5.70;100.00;103049.69;6157606;23;20002;-83
2021/04/16 07:23:50;;;;;;;10.48;4.88;;;;;;;5.78;100.00;103045.44;6105485;23;20465;-84
2021/04/16 07:26:33;;;;;;;17.77;5.82;;;;;;;5.91;100.00;103049.03;6156122;23;20033;-82
2021/04/16 07:28:59;;;;;;;18.42;5.60;;;;;;;5.93;100.00;103050.00;6156721;23;20101;-83
2021/04/16 07:31:27;;;;;;;10.30;4.50;;;;;;;6.04;100.00;103048.34;6132307;23;20758;-83
2021/04/16 07:33:54;;;;;;;14.90;5.57;;;;;;;6.17;100.00;103044.06;6159001;23;20039;-82
2021/04/16 07:36:32;;;;;;;10.32;4.90;;;;;;;6.23;100.00;103039.78;6133177;23;20005;-84
2021/04/16 07:39:03;;;;;;;15.20;5.32;;;;;;;6.34;100.00;103047.72;6134651;23;20005;-84
2021/04/16 07:41:32;;;;;;;17.27;6.47;;;;;;;6.29;100.00;103038.94;6129976;23;20068;-83
2021/04/16 07:44:00;;;;;;;11.73;4.97;;;;;;;6.51;100.00;103049.59;6130902;23;20091;-83
2021/04/16 07:46:26;;;;;;;8.68;5.05;;;;;;;6.63;100.00;103036.56;6130745;23;20010;-82
2021/04/16 07:48:52;;;;;;;15.13;6.30;;;;;;;6.67;100.00;103039.22;6122348;23;20013;-84
2021/04/16 07:51:31;;;;;;;15.27;5.90;;;;;;;6.85;100.00;103035.81;6158083;23;20645;-84
2021/04/16 07:54:25;;;;;;;17.80;7.22;;;;;;;7.00;100.00;103051.69;6132988;23;20032;-85
2021/04/16 07:57:26;;;;;;;16.50;6.03;;;;;;;7.12;100.00;103042.97;6132601;23;20084;-83
2021/04/16 07:59:56;;;;;;;16.13;6.40;;;;;;;7.23;100.00;103049.19;6029995;23;20090;-84
2021/04/16 08:02:46;;;;;;;16.48;6.97;;;;;;;7.28;100.00;103046.59;6058822;23;20201;-84
2021/04/16 08:05:29;;;;;;;14.13;6.40;;;;;;;7.38;100.00;103047.47;6046268;23;20012;-84
2021/04/16 08:08:27;;;;;;;14.48;6.22;;;;;;;7.49;100.00;103048.41;6045947;23;20031;-83
2021/04/16 08:10:55;;;;;;;11.70;6.07;;;;;;;7.55;100.00;103051.06;6014229;23;20097;-83
2021/04/16 08:13:35;;;;;;;15.05;5.78;;;;;;;7.51;100.00;103054.56;6037197;23;20018;-83
2021/04/16 08:16:41;;;;;;;12.18;6.65;;;;;;;7.59;100.00;103052.84;6037247;23;20006;-83
2021/04/16 08:19:28;;;;;;;13.02;5.20;;;;;;;7.93;100.00;103048.53;6033656;23;20065;-83
2021/04/16 08:22:06;;;;;;;12.75;4.97;;;;;;;7.89;100.00;103052.03;6029548;23;20051;-83
2021/04/16 08:24:54;;;;;;;11.27;4.82;;;;;;;7.96;100.00;103051.16;6038360;23;20034;-83
2021/04/16 08:27:51;;;;;;;10.85;4.75;;;;;;;7.95;100.00;103033.59;6037084;23;20378;-83
2021/04/16 08:30:24;;;;;;;14.05;4.90;;;;;;;8.28;100.00;103052.94;6039468;23;20066;-85
2021/04/16 08:33:01;;;;;;;11.18;4.72;;;;;;;8.22;100.00;103045.03;6025831;23;20018;-83
2021/04/16 08:35:50;;;;;;;7.40;3.72;;;;;;;8.41;100.00;103046.81;6131849;23;20438;-81
2021/04/16 08:38:23;;;;;;;9.48;3.90;;;;;;;8.47;100.00;103053.84;6132099;23;20002;-84
2021/04/16 08:41:03;;;;;;;13.35;3.97;;;;;;;8.47;100.00;103051.22;6159146;23;20007;-84
2021/04/16 08:43:38;;;;;;;11.63;4.18;;;;;;;8.57;100.00;103053.84;6132164;23;20424;-84
2021/04/16 08:46:14;;;;;;;7.32;3.70;;;;;;;8.86;100.00;103052.06;6157751;23;19998;-84
2021/04/16 08:48:42;;;;;;;8.63;3.63;;;;;;;8.86;100.00;103044.13;6129801;23;20013;-84
2021/04/16 08:51:12;;;;;;;10.30;4.00;;;;;;;9.07;100.00;103038.78;6157997;23;20094;-84
2021/04/16 08:53:42;;;;;;;7.53;3.70;;;;;;;9.30;100.00;103036.09;6159207;23;20008;-83
2021/04/16 08:56:25;;;;;;;9.38;4.95;;;;;;;9.10;100.00;103035.28;6161340;23;20009;-84
2021/04/16 08:58:52;;;;;;;9.43;3.05;;;;;;;9.22;100.00;103035.22;6160635;23;20029;-84
2021/04/16 09:01:21;;;;;;;11.40;4.25;;;;;;;9.43;100.00;103031.63;6131364;23;20001;-84
2021/04/16 09:03:53;;;;;;;9.75;3.33;;;;;;;9.45;100.00;103033.38;6155760;23;20158;-84
2021/04/16 09:06:31;;;;;;;6.82;3.58;;;;;;;9.48;100.00;103030.69;6130806;23;20012;-84
2021/04/16 09:08:58;;;;;;;6.13;2.95;;;;;;;9.90;100.00;103019.91;6132220;23;20013;-83
2021/04/16 09:11:45;;;;;;;8.60;3.20;;;;;;;10.27;100.00;103026.69;6155545;23;20012;-84
2021/04/16 09:14:26;;;;;;;;;;;;;;;10.10;100.00;103026.81;6128093;23;20013;-84
2021/04/16 09:16:55;;;;;;;9.10;3.00;;;;;;;10.29;100.00;103026.66;6129336;23;19905;-83
2021/04/16 09:19:23;;;;;;;6.53;2.78;;;;;;;10.24;100.00;103025.81;6157451;23;20005;-84
2021/04/16 09:22:07;;;;;;;8.68;3.47;;;;;;;9.64;100.00;103025.34;6155850;23;20001;-83
2021/04/16 09:24:41;;;;;;;7.60;3.35;;;;;;;9.98;100.00;103020.72;6131139;23;20010;-82
2021/04/16 09:27:34;;;;;;;10.45;3.35;;;;;;;10.18;100.00;103013.50;6131679;23;20040;-84
2021/04/16 09:29:59;;;;;;;6.22;2.63;;;;;;;10.22;100.00;103017.00;6135243;23;20021;-84
2021/04/16 09:32:35;;;;;;;12.05;3.35;;;;;;;10.65;100.00;103017.53;6165664;23;20447;-83
2021/04/16 09:35:03;;;;;;;5.38;2.40;;;;;;;11.05;100.00;103017.09;6136939;23;20006;-84
2021/04/16 09:37:33;;;;;;;4.78;2.28;;;;;;;11.40;96.74;103019.31;6136627;23;20006;-85
2021/04/16 09:40:14;;;;;;;4.50;2.67;;;;;;;11.52;92.68;103016.47;6132094;23;20064;-83
2021/04/16 09:42:44;;;;;;;4.72;2.67;;;;;;;11.60;90.64;103011.97;6157224;23;20011;-83
2021/04/16 09:45:14;;;;;;;4.85;2.63;;;;;;;11.44;87.38;103018.34;6143767;23;20016;-83
2021/04/16 09:47:43;;;;;;;3.33;1.80;;;;;;;11.33;85.18;102988.50;6168743;23;20024;-85
2021/04/16 09:50:29;;;;;;;9.70;2.80;;;;;;;11.28;82.32;103008.84;6139754;23;20013;-84
2021/04/16 09:53:31;;;;;;;5.10;2.42;;;;;;;11.20;83.60;103014.28;6133934;23;20034;-84
2021/04/16 09:55:59;;;;;;;7.38;2.15;;;;;;;11.12;82.71;103006.41;6158957;23;20005;-83
2021/04/16 09:58:42;;;;;;;6.43;2.00;;;;;;;11.33;80.67;102999.09;6158809;23;20006;-84
2021/04/16 10:01:07;;;;;;;6.30;2.75;;;;;;;11.70;79.60;102998.56;6131134;23;20340;-84
2021/04/16 10:03:33;;;;;;;4.55;1.98;;;;;;;12.17;79.18;103000.50;6130465;23;20009;-84
2021/04/16 10:06:12;;;;;;;7.38;2.67;;;;;;;12.44;78.11;102999.13;6156706;23;20001;-83
2021/04/16 10:08:38;;;;;;;2.95;2.03;;;;;;;13.15;74.41;102991.59;6131957;23;20005;-84
2021/04/16 10:11:05;;;;;;;4.95;2.28;;;;;;;13.28;73.07;102981.59;6159018;23;20001;-84
2021/04/16 10:13:35;;;;;;;6.57;2.72;;;;;;;12.65;71.29;102996.13;6132478;23;20088;-84
2021/04/16 10:16:01;;;;;;;4.70;2.45;;;;;;;12.80;70.51;102988.75;6158945;23;20005;-84
2021/04/16 10:18:39;;;;;;;6.80;2.65;;;;;;;12.63;70.66;102991.72;6134013;23;20305;-84
2021/04/16 10:21:14;;;;;;;8.55;2.78;;;;;;;11.87;68.37;102989.50;6132922;23;20352;-84
2021/04/16 10:50:43;;;;;;;3.50;2.10;;;;;;;17.71;35.32;102941.97;6169441;23;20506;-84
2021/04/16 11:02:35;;;;;;;4.22;2.33;;;;;;;18.95;31.42;102932.09;6159519;23;19971;-84
2021/04/16 12:39:32;;;;;;;8.15;1.90;;;;;;;21.81;23.93;102865.88;6156741;23;20016;-82
2021/04/16 12:41:58;;;;;;;4.55;1.90;;;;;;;21.23;24.87;102877.31;6158387;23;20061;-82
2021/04/16 12:44:48;;;;;;;2.88;1.60;;;;;;;21.85;24.23;102863.88;6130090;23;20009;-81
2021/04/16 12:47:17;;;;;;;3.20;1.60;;;;;;;23.10;23.42;102868.66;6155182;23;20010;-81
2021/04/16 12:49:42;;;;;;;3.53;1.65;;;;;;;22.93;23.34;102872.41;6157518;23;20008;-81
2021/04/16 12:52:08;;;;;;;3.17;2.08;;;;;;;21.84;23.90;102873.78;6132412;23;20010;-82
2021/04/16 12:54:39;;;;;;;3.05;2.03;;;;;;;20.94;24.48;102870.94;6131617;23;20432;-82
2021/04/16 12:57:06;;;;;;;3.70;1.75;;;;;;;21.75;23.66;102862.69;6131392;23;20012;-82
2021/04/16 12:59:31;;;;;;;5.05;1.65;;;;;;;23.52;23.30;102854.13;6157267;23;20029;-84
2021/04/16 13:01:57;;;;;;;4.13;1.90;;;;;;;21.78;24.50;102846.34;6158881;23;20424;-81
2021/04/16 13:04:26;;;;;;;3.08;1.85;;;;;;;21.89;24.70;102868.13;6130944;23;20072;-82
2021/04/16 13:06:55;;;;;;;8.27;1.90;;;;;;;21.07;25.59;102871.09;6111228;23;20021;-84
2021/04/16 13:09:20;;;;;;;7.00;1.92;;;;;;;20.92;25.14;102865.63;6107688;23;20064;-82
2021/04/16 13:11:50;;;;;;;3.95;2.10;;;;;;;21.23;24.72;102861.19;6131358;23;20697;-82
2021/04/16 13:14:17;;;;;;;3.55;1.85;;;;;;;20.97;24.45;102851.06;6156575;23;20006;-82
2021/04/16 13:16:42;;;;;;;5.78;1.83;;;;;;;22.34;23.40;102853.69;6131339;23;20428;-83
2021/04/16 13:19:11;;;;;;;3.78;1.40;;;;;;;22.84;23.45;102855.00;6129964;23;20009;-82
2021/04/16 13:21:41;;;;;;;4.72;1.67;;;;;;;21.00;24.09;102851.75;6155496;23;20002;-82
2021/04/16 13:24:09;;;;;;;4.45;1.70;;;;;;;21.55;23.62;102851.28;6130179;23;20406;-82
2021/04/16 13:26:34;;;;;;;5.65;1.70;;;;;;;21.72;24.27;102855.66;6131740;23;20037;-82
2021/04/16 13:29:00;;;;;;;3.55;1.70;;;;;;;22.55;24.04;102856.00;6161261;23;20024;-82
2021/04/16 13:31:29;;;;;;;3.40;1.73;;;;;;;23.79;22.78;102840.59;6135150;23;20029;-82
2021/04/16 13:33:55;;;;;;;4.18;1.90;;;;;;;24.65;22.43;102838.13;6159183;23;20017;-82
2021/04/16 13:36:42;;;;;;;6.90;2.33;;;;;;;23.79;22.50;102845.97;6159265;23;20002;-82
2021/04/16 13:39:07;;;;;;;3.80;2.05;;;;;;;22.84;24.34;102852.31;6161988;23;20009;-82
2021/04/16 13:41:33;;;;;;;4.05;1.90;;;;;;;23.30;22.77;102849.31;6134310;23;20072;-83
2021/04/16 13:43:59;;;;;;;3.67;1.80;;;;;;;22.74;23.36;102835.84;6162061;23;20002;-81
2021/04/16 13:46:27;;;;;;;4.32;1.90;;;;;;;22.11;24.14;102836.25;6162430;23;20002;-82